Погода Аль-Вакрана 2 недели

Доха, Катар

24 февраля-08 марта
  • 24февраля
    Сегодня
    +20°
    +27°
    Ясно и безоблачно
    ВремяПогодаТемператураВлажностьДавлениеВетер, м/сВероятность осадков
    00:00Ясно и безоблачно+19°C73 %762 мм2.9 м/с2 %
    03:00Ясно и безоблачно+18°C86 %761 мм3.2 м/с2 %
    06:00Ясно и безоблачно+17°C91 %761 мм3.3 м/с2 %
    09:00Ясно и безоблачно+22°C63 %762 мм3.2 м/с2 %
    12:00Ясно и безоблачно+26°C42 %761 мм2.5 м/с2 %
    15:00Ясно и безоблачно+26°C49 %759 мм4.0 м/с2 %
    18:00Ясно и безоблачно+23°C66 %759 мм2.6 м/с2 %
    21:00Небольшая облачность+22°C73 %759 мм2.5 м/с2 %
  • 25февраля
    Воскресенье
    +16°
    +25°
    Ясно и безоблачно
    ВремяПогодаТемператураВлажностьДавлениеВетер, м/сВероятность осадков
    00:00Облачно с прояснениями+22°C67 %757 мм3.9 м/с2 %
    03:00Практически безоблачно+21°C68 %756 мм4.0 м/с2 %
    06:00Облачно с прояснениями+20°C80 %756 мм2.1 м/с2 %
    09:00Облачно с прояснениями+23°C79 %757 мм4.7 м/с4 %
    12:00Практически безоблачно+24°C69 %756 мм4.7 м/с10 %
    15:00Ясно и безоблачно+25°C64 %755 мм4.6 м/с3 %
    18:00Ясно и безоблачно+22°C66 %756 мм7.2 м/с2 %
    21:00Ясно и безоблачно+20°C81 %758 мм7.1 м/с2 %
  • 26февраля
    Понедельник
    +14°
    +24°
    Ясно и безоблачно
    ВремяПогодаТемператураВлажностьДавлениеВетер, м/сВероятность осадков
    00:00Ясно и безоблачно+19°C82 %758 мм5.7 м/с2 %
    03:00Ясно и безоблачно+17°C85 %758 мм5.4 м/с2 %
    06:00Ясно и безоблачно+16°C87 %759 мм4.1 м/с2 %
    09:00Практически безоблачно+20°C63 %760 мм7.4 м/с2 %
    12:00Небольшая облачность+23°C49 %759 мм6.4 м/с2 %
    15:00Ясно и безоблачно+23°C45 %758 мм7.4 м/с2 %
    18:00Ясно и безоблачно+21°C57 %759 мм6.6 м/с2 %
    21:00Ясно и безоблачно+19°C71 %760 мм4.2 м/с2 %
  • 27февраля
    Вторник
    +16°
    +24°
    Ясно и безоблачно
    ВремяПогодаТемператураВлажностьДавлениеВетер, м/сВероятность осадков
    00:00Ясно и безоблачно+17°C80 %760 мм3.8 м/с2 %
    03:00Ясно и безоблачно+15°C87 %760 мм3.6 м/с2 %
    06:00Ясно и безоблачно+15°C93 %761 мм3.4 м/с2 %
    09:00Ясно и безоблачно+20°C61 %762 мм4.3 м/с2 %
    12:00Ясно и безоблачно+23°C44 %761 мм4.1 м/с2 %
    15:00Ясно и безоблачно+23°C49 %760 мм5.7 м/с2 %
    18:00Ясно и безоблачно+21°C56 %760 мм5.8 м/с2 %
    21:00Ясно и безоблачно+20°C60 %761 мм3.8 м/с2 %
  • 28февраля
    Среда
    +16°
    +23°
    Ясно и безоблачно
    ВремяПогодаТемператураВлажностьДавлениеВетер, м/сВероятность осадков
    00:00Ясно и безоблачно+19°C67 %760 мм1.8 м/с3 %
    03:00Пасмурно, сплошная облачность+18°C72 %759 мм1.4 м/с2 %
    06:00Ясно и безоблачно+17°C82 %760 мм2.7 м/с2 %
    09:00Ясно и безоблачно+21°C64 %762 мм2.7 м/с2 %
    12:00Практически безоблачно+23°C59 %760 мм4.1 м/с3 %
    15:00Ясно и безоблачно+23°C58 %759 мм5.5 м/с3 %
    18:00Ясно и безоблачно+21°C67 %759 мм4.8 м/с3 %
    21:00Ясно и безоблачно+21°C78 %760 мм4.5 м/с2 %
Мы используем cookies
Соглашаюсь